createdAt,value
2024-02-18T00:00:34.419Z,97507.00
2024-02-18T00:01:34.478Z,97507.00
2024-02-18T00:02:34.384Z,97506.00
2024-02-18T00:03:34.498Z,97505.00
2024-02-18T00:04:34.608Z,97507.00
2024-02-18T00:05:34.443Z,97507.00
2024-02-18T00:06:34.588Z,97506.00
2024-02-18T00:07:34.490Z,97507.00
2024-02-18T00:08:34.499Z,97509.00
2024-02-18T00:09:34.602Z,97508.00
2024-02-18T00:10:36.949Z,97507.00
2024-02-18T00:11:34.571Z,97510.00
2024-02-18T00:12:34.596Z,97510.00
2024-02-18T00:13:34.634Z,97508.00
2024-02-18T00:14:34.622Z,97512.00
2024-02-18T00:15:34.671Z,97511.00
2024-02-18T00:16:34.661Z,97510.00
2024-02-18T00:17:34.704Z,97508.00
2024-02-18T00:18:34.776Z,97508.00
2024-02-18T00:19:34.886Z,97505.00
2024-02-18T00:20:34.739Z,97503.00
2024-02-18T00:21:34.748Z,97501.00
2024-02-18T00:22:34.775Z,97499.00
2024-02-18T00:23:34.797Z,97500.00
2024-02-18T00:24:34.887Z,97499.00
2024-02-18T00:25:34.836Z,97500.00
2024-02-18T00:26:44.569Z,97500.00
2024-02-18T00:27:35.951Z,97498.00
2024-02-18T00:28:34.870Z,97501.00
2024-02-18T00:29:34.871Z,97499.00
2024-02-18T00:30:34.884Z,97500.00
2024-02-18T00:31:34.889Z,97500.00
2024-02-18T00:32:34.909Z,97497.00
2024-02-18T00:33:35.028Z,97497.00
2024-02-18T00:34:34.950Z,97498.00
2024-02-18T00:35:34.869Z,97497.00
2024-02-18T00:36:34.945Z,97499.00
2024-02-18T00:37:34.904Z,97500.00
2024-02-18T00:38:34.889Z,97503.00
2024-02-18T00:39:34.940Z,97502.00
2024-02-18T00:40:34.880Z,97504.00
2024-02-18T00:41:34.876Z,97504.00
2024-02-18T00:42:34.895Z,97503.00
2024-02-18T00:43:34.885Z,97501.00
2024-02-18T00:44:34.886Z,97500.00
2024-02-18T00:45:34.958Z,97498.00
2024-02-18T00:46:44.943Z,97497.00
2024-02-18T00:47:35.941Z,97495.00
2024-02-18T00:48:35.051Z,97496.00
2024-02-18T00:49:35.626Z,97494.00
2024-02-18T00:50:34.915Z,97491.00
2024-02-18T00:51:34.938Z,97490.00
2024-02-18T00:52:34.893Z,97490.00
2024-02-18T00:53:34.895Z,97488.00
2024-02-18T00:54:34.969Z,97487.00
2024-02-18T00:55:34.897Z,97487.00
2024-02-18T00:56:34.905Z,97486.00
2024-02-18T00:57:34.911Z,97487.00
2024-02-18T00:58:34.912Z,97488.00
2024-02-18T00:59:34.923Z,97488.00
2024-02-18T01:00:34.990Z,97488.00
2024-02-18T01:01:35.040Z,97488.00
2024-02-18T01:02:34.951Z,97488.00
2024-02-18T01:03:34.942Z,97488.00
2024-02-18T01:04:34.914Z,97489.00
2024-02-18T01:05:34.953Z,97490.00
2024-02-18T01:06:34.942Z,97492.00
2024-02-18T01:07:34.907Z,97495.00
2024-02-18T01:08:34.910Z,97495.00
2024-02-18T01:09:35.510Z,97495.00
2024-02-18T01:10:34.936Z,97497.00
2024-02-18T01:11:34.915Z,97500.00
2024-02-18T01:12:34.957Z,97500.00
2024-02-18T01:13:34.935Z,97501.00
2024-02-18T01:14:34.930Z,97502.00
2024-02-18T01:15:35.007Z,97503.00
2024-02-18T01:16:34.943Z,97502.00
2024-02-18T01:17:34.957Z,97501.00
2024-02-18T01:18:35.053Z,97498.00
2024-02-18T01:19:35.102Z,97495.00
2024-02-18T01:20:34.944Z,97495.00
2024-02-18T01:21:34.953Z,97491.00
2024-02-18T01:22:34.963Z,97489.00
2024-02-18T01:23:34.942Z,97487.00
2024-02-18T01:24:34.986Z,97487.00
2024-02-18T01:25:34.944Z,97486.00
2024-02-18T01:26:34.965Z,97483.00
2024-02-18T01:27:34.990Z,97484.00
2024-02-18T01:28:34.961Z,97482.00
2024-02-18T01:29:34.968Z,97483.00
2024-02-18T01:30:34.970Z,97482.00
2024-02-18T01:31:34.959Z,97485.00
2024-02-18T01:32:34.985Z,97484.00
2024-02-18T01:33:35.019Z,97487.00
2024-02-18T01:34:35.022Z,97490.00
2024-02-18T01:35:34.966Z,97491.00
2024-02-18T01:36:35.044Z,97496.00
2024-02-18T01:37:34.969Z,97499.00
2024-02-18T01:38:34.975Z,97500.00
2024-02-18T01:39:35.011Z,97502.00
2024-02-18T01:40:34.986Z,97503.00
2024-02-18T01:41:34.982Z,97505.00
2024-02-18T01:42:35.027Z,97506.00
2024-02-18T01:43:34.995Z,97505.00
2024-02-18T01:44:35.023Z,97505.00
2024-02-18T01:45:35.145Z,97502.00
2024-02-18T01:46:35.065Z,97500.00
2024-02-18T01:47:35.083Z,97496.00
2024-02-18T01:48:35.174Z,97492.00
2024-02-18T01:49:36.868Z,97492.00
2024-02-18T01:50:35.239Z,97492.00
2024-02-18T01:51:35.195Z,97490.00
2024-02-18T01:52:35.149Z,97491.00
2024-02-18T01:53:35.152Z,97493.00
2024-02-18T01:54:35.257Z,97495.00
2024-02-18T01:55:35.181Z,97493.00
2024-02-18T01:56:35.880Z,97493.00
2024-02-18T01:57:40.223Z,97492.00
2024-02-18T01:58:35.230Z,97490.00
2024-02-18T01:59:35.248Z,97489.00
2024-02-18T02:00:35.315Z,97489.00
2024-02-18T02:01:35.278Z,97488.00
2024-02-18T02:02:35.220Z,97489.00
2024-02-18T02:03:35.265Z,97492.00
2024-02-18T02:04:35.309Z,97491.00
2024-02-18T02:05:35.238Z,97493.00
2024-02-18T02:06:35.263Z,97492.00
2024-02-18T02:07:35.232Z,97492.00
2024-02-18T02:08:35.244Z,97493.00
2024-02-18T02:09:37.281Z,97495.00
2024-02-18T02:10:35.270Z,97496.00
2024-02-18T02:11:35.293Z,97496.00
2024-02-18T02:12:35.272Z,97497.00
2024-02-18T02:13:35.251Z,97492.00
2024-02-18T02:14:35.257Z,97490.00
2024-02-18T02:15:35.285Z,97490.00
2024-02-18T02:16:35.249Z,97485.00
2024-02-18T02:17:35.276Z,97485.00
2024-02-18T02:18:35.361Z,97484.00
2024-02-18T02:19:35.394Z,97486.00
2024-02-18T02:20:35.263Z,97483.00
2024-02-18T02:21:35.278Z,97481.00
2024-02-18T02:22:35.350Z,97481.00
2024-02-18T02:23:35.277Z,97481.00
2024-02-18T02:24:35.330Z,97480.00
2024-02-18T02:25:35.256Z,97480.00
2024-02-18T02:26:35.270Z,97477.00
2024-02-18T02:27:35.294Z,97474.00
2024-02-18T02:28:35.272Z,97473.00
2024-02-18T02:29:35.273Z,97472.00
2024-02-18T02:30:35.291Z,97471.00
2024-02-18T02:31:35.285Z,97471.00
2024-02-18T02:32:35.282Z,97469.00
2024-02-18T02:33:35.319Z,97468.00
2024-02-18T02:34:35.312Z,97469.00
2024-02-18T02:35:35.293Z,97470.00
2024-02-18T02:36:35.335Z,97470.00
2024-02-18T02:37:35.321Z,97468.00
2024-02-18T02:38:35.325Z,97465.00
2024-02-18T02:39:35.361Z,97463.00
2024-02-18T02:40:35.327Z,97460.00
2024-02-18T02:41:35.330Z,97461.00
2024-02-18T02:42:35.341Z,97459.00
2024-02-18T02:43:35.347Z,97462.00
2024-02-18T02:44:35.334Z,97463.00
2024-02-18T02:45:35.420Z,97465.00
2024-02-18T02:46:35.350Z,97464.00
2024-02-18T02:47:35.414Z,97462.00
2024-02-18T02:48:35.423Z,97460.00
2024-02-18T02:49:35.431Z,97458.00
2024-02-18T02:50:37.757Z,97456.00
2024-02-18T02:51:35.406Z,97457.00
2024-02-18T02:52:35.373Z,97452.00
2024-02-18T02:53:35.385Z,97448.00
2024-02-18T02:54:35.426Z,97447.00
2024-02-18T02:55:35.397Z,97445.00
2024-02-18T02:56:35.376Z,97445.00
2024-02-18T02:57:35.386Z,97445.00
2024-02-18T02:58:35.387Z,97447.00
2024-02-18T02:59:35.401Z,97449.00
2024-02-18T03:00:35.413Z,97448.00
2024-02-18T03:01:35.517Z,97451.00
2024-02-18T03:02:35.390Z,97450.00
2024-02-18T03:03:35.518Z,97449.00
2024-02-18T03:04:35.564Z,97450.00
2024-02-18T03:05:35.423Z,97445.00
2024-02-18T03:06:35.464Z,97446.00
2024-02-18T03:07:35.412Z,97444.00
2024-02-18T03:08:35.403Z,97446.00
2024-02-18T03:09:35.429Z,97442.00
2024-02-18T03:10:35.407Z,97442.00
2024-02-18T03:11:35.409Z,97439.00
2024-02-18T03:12:35.660Z,97436.00
2024-02-18T03:13:35.432Z,97436.00
2024-02-18T03:14:35.412Z,97436.00
2024-02-18T03:15:35.459Z,97435.00
2024-02-18T03:16:35.410Z,97436.00
2024-02-18T03:17:35.487Z,97436.00
2024-02-18T03:18:35.480Z,97437.00
2024-02-18T03:19:35.476Z,97434.00
2024-02-18T03:20:35.412Z,97435.00
2024-02-18T03:21:35.480Z,97438.00
2024-02-18T03:22:35.416Z,97439.00
2024-02-18T03:23:35.430Z,97442.00
2024-02-18T03:24:35.440Z,97441.00
2024-02-18T03:25:35.461Z,97442.00
2024-02-18T03:26:35.425Z,97441.00
2024-02-18T03:27:35.574Z,97442.00
2024-02-18T03:28:35.425Z,97439.00
2024-02-18T03:29:38.070Z,97439.00
2024-02-18T03:30:35.472Z,97440.00
2024-02-18T03:31:35.446Z,97442.00
2024-02-18T03:32:35.458Z,97442.00
2024-02-18T03:33:35.539Z,97444.00
2024-02-18T03:34:35.502Z,97443.00
2024-02-18T03:35:35.475Z,97445.00
2024-02-18T03:36:35.501Z,97444.00
2024-02-18T03:37:35.476Z,97444.00
2024-02-18T03:38:35.463Z,97442.00
2024-02-18T03:39:35.477Z,97443.00
2024-02-18T03:40:35.467Z,97446.00
2024-02-18T03:41:35.460Z,97443.00
2024-02-18T03:42:35.463Z,97442.00
2024-02-18T03:43:35.484Z,97439.00
2024-02-18T03:44:35.468Z,97439.00
2024-02-18T03:45:35.545Z,97436.00
2024-02-18T03:46:35.479Z,97435.00
2024-02-18T03:47:35.510Z,97432.00
2024-02-18T03:48:35.583Z,97436.00
2024-02-18T03:49:35.586Z,97433.00
2024-02-18T03:50:35.478Z,97432.00
2024-02-18T03:51:35.501Z,97433.00
2024-02-18T03:52:35.488Z,97433.00
2024-02-18T03:53:35.492Z,97433.00
2024-02-18T03:54:35.525Z,97435.00
2024-02-18T03:55:35.514Z,97432.00
2024-02-18T03:56:35.498Z,97431.00
2024-02-18T03:57:36.419Z,97431.00
2024-02-18T03:58:35.516Z,97429.00
2024-02-18T03:59:35.498Z,97428.00
2024-02-18T04:00:35.572Z,97426.00
2024-02-18T04:01:35.606Z,97424.00
2024-02-18T04:02:35.507Z,97423.00
2024-02-18T04:03:35.518Z,97422.00
2024-02-18T04:04:35.639Z,97420.00
2024-02-18T04:05:35.530Z,97416.00
2024-02-18T04:06:35.527Z,97413.00
2024-02-18T04:07:35.535Z,97411.00
2024-02-18T04:08:35.509Z,97411.00
2024-02-18T04:09:35.531Z,97412.00
2024-02-18T04:10:35.509Z,97413.00
2024-02-18T04:11:35.608Z,97416.00
2024-02-18T04:12:35.583Z,97420.00
2024-02-18T04:13:35.530Z,97421.00
2024-02-18T04:14:35.512Z,97420.00
2024-02-18T04:15:35.571Z,97420.00
2024-02-18T04:16:35.531Z,97419.00
2024-02-18T04:17:35.595Z,97418.00
2024-02-18T04:18:35.570Z,97415.00
2024-02-18T04:19:35.704Z,97416.00
2024-02-18T04:20:35.521Z,97415.00
2024-02-18T04:21:35.565Z,97416.00
2024-02-18T04:22:35.533Z,97417.00
2024-02-18T04:23:35.541Z,97418.00
2024-02-18T04:24:35.566Z,97419.00
2024-02-18T04:25:35.560Z,97422.00
2024-02-18T04:26:35.526Z,97421.00
2024-02-18T04:27:35.585Z,97420.00
2024-02-18T04:28:35.530Z,97422.00
2024-02-18T04:29:35.546Z,97421.00
2024-02-18T04:30:35.598Z,97422.00
2024-02-18T04:31:35.553Z,97421.00
2024-02-18T04:32:35.633Z,97422.00
2024-02-18T04:33:35.845Z,97420.00
2024-02-18T04:34:35.658Z,97421.00
2024-02-18T04:35:35.580Z,97419.00
2024-02-18T04:36:35.620Z,97416.00
2024-02-18T04:37:35.552Z,97415.00
2024-02-18T04:38:35.564Z,97415.00
2024-02-18T04:39:35.685Z,97415.00
2024-02-18T04:40:35.559Z,97414.00
2024-02-18T04:41:35.576Z,97413.00
2024-02-18T04:42:35.613Z,97410.00
2024-02-18T04:43:35.599Z,97410.00
2024-02-18T04:44:35.558Z,97407.00
2024-02-18T04:45:35.606Z,97408.00
2024-02-18T04:46:35.660Z,97409.00
2024-02-18T04:47:35.613Z,97409.00
2024-02-18T04:48:35.617Z,97410.00
2024-02-18T04:49:35.645Z,97413.00
2024-02-18T04:50:35.596Z,97413.00
2024-02-18T04:51:35.622Z,97412.00
2024-02-18T04:52:35.592Z,97411.00
2024-02-18T04:53:35.593Z,97412.00
2024-02-18T04:54:39.588Z,97416.00
2024-02-18T04:55:35.594Z,97415.00
2024-02-18T04:56:35.605Z,97415.00
2024-02-18T04:57:35.646Z,97417.00
2024-02-18T04:58:35.602Z,97417.00
2024-02-18T04:59:35.738Z,97415.00
2024-02-18T05:00:35.699Z,97415.00
2024-02-18T05:01:35.666Z,97414.00
2024-02-18T05:02:35.745Z,97415.00
2024-02-18T05:03:43.108Z,97413.00
2024-02-18T05:04:43.141Z,97412.00
2024-02-18T05:05:43.098Z,97412.00
2024-02-18T05:06:43.122Z,97411.00
2024-02-18T05:07:43.078Z,97411.00
2024-02-18T05:08:43.087Z,97411.00
2024-02-18T05:09:43.101Z,97413.00
2024-02-18T05:10:43.082Z,97414.00
2024-02-18T05:11:43.164Z,97415.00
2024-02-18T05:12:43.141Z,97414.00
2024-02-18T05:13:43.084Z,97416.00
2024-02-18T05:14:43.096Z,97416.00
2024-02-18T05:15:43.169Z,97416.00
2024-02-18T05:16:43.108Z,97413.00
2024-02-18T05:17:43.246Z,97414.00
2024-02-18T05:18:43.179Z,97411.00
2024-02-18T05:19:43.123Z,97411.00
2024-02-18T05:20:43.099Z,97410.00
2024-02-18T05:21:43.123Z,97412.00
2024-02-18T05:22:43.123Z,97412.00
2024-02-18T05:23:43.097Z,97411.00
2024-02-18T05:24:43.122Z,97410.00
2024-02-18T05:25:43.113Z,97411.00
2024-02-18T05:26:43.102Z,97412.00
2024-02-18T05:27:43.170Z,97412.00
2024-02-18T05:28:43.109Z,97414.00
2024-02-18T05:29:43.136Z,97417.00
2024-02-18T05:30:43.144Z,97418.00
2024-02-18T05:31:43.123Z,97416.00
2024-02-18T05:32:43.210Z,97417.00
2024-02-18T05:33:43.282Z,97416.00
2024-02-18T05:34:43.271Z,97417.00
2024-02-18T05:35:43.210Z,97414.00
2024-02-18T05:36:43.179Z,97416.00
2024-02-18T05:37:43.138Z,97413.00
2024-02-18T05:38:43.140Z,97415.00
2024-02-18T05:39:43.172Z,97415.00
2024-02-18T05:40:43.144Z,97414.00
2024-02-18T05:41:43.145Z,97416.00
2024-02-18T05:42:43.207Z,97417.00
2024-02-18T05:43:43.155Z,97418.00
2024-02-18T05:44:43.142Z,97418.00
2024-02-18T05:45:43.218Z,97420.00
2024-02-18T05:46:43.143Z,97420.00
2024-02-18T05:47:43.181Z,97423.00
2024-02-18T05:48:43.361Z,97421.00
2024-02-18T05:49:44.664Z,97422.00
2024-02-18T05:50:43.167Z,97423.00
2024-02-18T05:51:43.193Z,97423.00
2024-02-18T05:52:43.157Z,97425.00
2024-02-18T05:53:43.170Z,97427.00
2024-02-18T05:54:43.186Z,97429.00
2024-02-18T05:55:43.178Z,97427.00
2024-02-18T05:56:43.175Z,97430.00
2024-02-18T05:57:43.264Z,97430.00
2024-02-18T05:58:43.170Z,97428.00
2024-02-18T05:59:43.183Z,97428.00
2024-02-18T06:00:43.342Z,97428.00
2024-02-18T06:01:43.511Z,97428.00
2024-02-18T06:02:43.182Z,97425.00
2024-02-18T06:03:43.235Z,97428.00
2024-02-18T06:04:43.275Z,97426.00
2024-02-18T06:05:43.309Z,97428.00
2024-02-18T06:06:43.249Z,97430.00
2024-02-18T06:07:43.296Z,97431.00
2024-02-18T06:08:43.187Z,97432.00
2024-02-18T06:09:43.285Z,97433.00
2024-02-18T06:10:43.352Z,97437.00
2024-02-18T06:11:43.269Z,97438.00
2024-02-18T06:12:43.223Z,97438.00
2024-02-18T06:13:43.201Z,97438.00
2024-02-18T06:14:43.208Z,97436.00
2024-02-18T06:15:43.270Z,97438.00
2024-02-18T06:16:43.219Z,97438.00
2024-02-18T06:17:43.275Z,97439.00
2024-02-18T06:18:43.397Z,97440.00
2024-02-18T06:19:43.297Z,97440.00
2024-02-18T06:20:43.204Z,97441.00
2024-02-18T06:21:43.243Z,97442.00
2024-02-18T06:22:43.227Z,97442.00
2024-02-18T06:23:43.267Z,97442.00
2024-02-18T06:24:43.314Z,97446.00
2024-02-18T06:25:43.321Z,97448.00
2024-02-18T06:26:43.310Z,97447.00
2024-02-18T06:27:43.385Z,97450.00
2024-02-18T06:28:43.360Z,97450.00
2024-02-18T06:29:43.371Z,97451.00
2024-02-18T06:30:43.448Z,97451.00
2024-02-18T06:31:43.417Z,97449.00
2024-02-18T06:32:43.436Z,97450.00
2024-02-18T06:33:43.605Z,97450.00
2024-02-18T06:34:43.686Z,97450.00
2024-02-18T06:35:43.606Z,97449.00
2024-02-18T06:36:43.638Z,97447.00
2024-02-18T06:37:43.684Z,97448.00
2024-02-18T06:38:43.606Z,97446.00
2024-02-18T06:39:43.694Z,97445.00
2024-02-18T06:40:43.679Z,97443.00
2024-02-18T06:41:43.694Z,97440.00
2024-02-18T06:42:43.757Z,97438.00
2024-02-18T06:43:43.720Z,97438.00
2024-02-18T06:44:43.747Z,97438.00
2024-02-18T06:45:43.899Z,97439.00
2024-02-18T06:46:43.804Z,97441.00
2024-02-18T06:47:43.856Z,97441.00
2024-02-18T06:48:44.016Z,97440.00
2024-02-18T06:49:43.901Z,97442.00
2024-02-18T06:50:43.889Z,97441.00
2024-02-18T06:51:43.973Z,97440.00
2024-02-18T06:52:43.990Z,97440.00
2024-02-18T06:53:44.005Z,97441.00
2024-02-18T06:54:44.053Z,97440.00
2024-02-18T06:55:44.072Z,97436.00
2024-02-18T06:56:44.073Z,97434.00
2024-02-18T06:57:44.161Z,97434.00
2024-02-18T06:58:44.151Z,97435.00
2024-02-18T06:59:44.166Z,97432.00
2024-02-18T07:00:44.363Z,97433.00
2024-02-18T07:01:44.282Z,97431.00
2024-02-18T07:02:44.262Z,97433.00
2024-02-18T07:03:44.340Z,97431.00
2024-02-18T07:04:44.402Z,97428.00
2024-02-18T07:05:44.410Z,97426.00
2024-02-18T07:06:44.492Z,97427.00
2024-02-18T07:07:44.426Z,97428.00
2024-02-18T07:08:44.442Z,97430.00
2024-02-18T07:09:44.601Z,97430.00
2024-02-18T07:10:44.528Z,97432.00
2024-02-18T07:11:44.524Z,97432.00
2024-02-18T07:12:44.593Z,97433.00
2024-02-18T07:13:44.599Z,97428.00
2024-02-18T07:14:44.623Z,97430.00
2024-02-18T07:15:44.707Z,97429.00
2024-02-18T07:16:44.685Z,97429.00
2024-02-18T07:17:44.771Z,97429.00
2024-02-18T07:18:44.872Z,97427.00
2024-02-18T07:19:44.883Z,97423.00
2024-02-18T07:20:44.855Z,97418.00
2024-02-18T07:21:44.968Z,97415.00
2024-02-18T07:22:44.910Z,97413.00
2024-02-18T07:23:44.955Z,97412.00
2024-02-18T07:24:45.030Z,97412.00
2024-02-18T07:25:45.125Z,97416.00
2024-02-18T07:26:45.044Z,97421.00
2024-02-18T07:27:45.120Z,97421.00
2024-02-18T07:28:45.116Z,97427.00
2024-02-18T07:29:45.159Z,97429.00
2024-02-18T07:30:45.238Z,97430.00
2024-02-18T07:31:45.237Z,97428.00
2024-02-18T07:32:45.296Z,97431.00
2024-02-18T07:33:45.504Z,97433.00
2024-02-18T07:34:45.356Z,97432.00
2024-02-18T07:35:45.313Z,97429.00
2024-02-18T07:36:45.404Z,97426.00
2024-02-18T07:37:45.404Z,97425.00
2024-02-18T07:38:45.375Z,97422.00
2024-02-18T07:39:45.417Z,97423.00
2024-02-18T07:40:45.429Z,97423.00
2024-02-18T07:41:45.458Z,97425.00
2024-02-18T07:42:45.484Z,97423.00
2024-02-18T07:43:45.501Z,97422.00
2024-02-18T07:44:45.495Z,97424.00
2024-02-18T07:45:45.551Z,97425.00
2024-02-18T07:46:45.557Z,97429.00
2024-02-18T07:47:45.703Z,97429.00
2024-02-18T07:48:45.757Z,97431.00
2024-02-18T07:49:45.695Z,97429.00
2024-02-18T07:50:45.732Z,97430.00
2024-02-18T07:51:45.759Z,97427.00
2024-02-18T07:52:45.769Z,97424.00
2024-02-18T07:53:45.817Z,97422.00
2024-02-18T07:54:45.871Z,97420.00
2024-02-18T07:55:45.897Z,97417.00
2024-02-18T07:56:45.962Z,97418.00
2024-02-18T07:57:46.049Z,97420.00
2024-02-18T07:58:45.964Z,97421.00
2024-02-18T07:59:46.007Z,97420.00
2024-02-18T08:00:46.208Z,97419.00
2024-02-18T08:01:46.538Z,97416.00
2024-02-18T08:02:46.082Z,97417.00
2024-02-18T08:03:46.229Z,97416.00
2024-02-18T08:04:46.322Z,97413.00
2024-02-18T08:05:46.209Z,97414.00
2024-02-18T08:06:49.388Z,97412.00
2024-02-18T08:07:46.217Z,97416.00
2024-02-18T08:08:46.523Z,97416.00
2024-02-18T08:09:46.285Z,97418.00
2024-02-18T08:10:46.214Z,97421.00
2024-02-18T08:11:46.424Z,97422.00
2024-02-18T08:12:46.254Z,97421.00
2024-02-18T08:13:46.306Z,97420.00
2024-02-18T08:14:46.221Z,97416.00
2024-02-18T08:15:46.248Z,97416.00
2024-02-18T08:16:46.207Z,97414.00
2024-02-18T08:17:46.297Z,97416.00
2024-02-18T08:18:46.321Z,97414.00
2024-02-18T08:19:46.303Z,97413.00
2024-02-18T08:20:46.238Z,97410.00
2024-02-18T08:21:46.245Z,97407.00
2024-02-18T08:22:46.311Z,97406.00
2024-02-18T08:23:46.247Z,97404.00
2024-02-18T08:24:46.253Z,97405.00
2024-02-18T08:25:46.240Z,97402.00
2024-02-18T08:26:46.235Z,97404.00
2024-02-18T08:27:46.301Z,97401.00
2024-02-18T08:28:46.248Z,97399.00
2024-02-18T08:29:46.342Z,97398.00
2024-02-18T08:30:46.310Z,97398.00
2024-02-18T08:31:46.251Z,97397.00
2024-02-18T08:32:46.287Z,97400.00
2024-02-18T08:33:46.296Z,97398.00
2024-02-18T08:34:46.321Z,97397.00
2024-02-18T08:35:46.266Z,97395.00
2024-02-18T08:36:46.299Z,97395.00
2024-02-18T08:37:46.262Z,97394.00
2024-02-18T08:38:46.266Z,97392.00
2024-02-18T08:39:46.288Z,97390.00
2024-02-18T08:40:46.271Z,97390.00
2024-02-18T08:41:46.267Z,97392.00
2024-02-18T08:42:46.322Z,97390.00
2024-02-18T08:43:46.281Z,97389.00
2024-02-18T08:44:46.277Z,97385.00
2024-02-18T08:45:46.467Z,97387.00
2024-02-18T08:46:46.358Z,97384.00
2024-02-18T08:47:46.578Z,97385.00
2024-02-18T08:48:46.510Z,97383.00
2024-02-18T08:49:46.576Z,97382.00
2024-02-18T08:50:46.554Z,97382.00
2024-02-18T08:51:46.667Z,97380.00
2024-02-18T08:52:46.664Z,97381.00
2024-02-18T08:53:46.736Z,97379.00
2024-02-18T08:54:46.788Z,97381.00
2024-02-18T08:55:46.853Z,97381.00
2024-02-18T08:56:46.906Z,97378.00
2024-02-18T08:57:47.012Z,97379.00
2024-02-18T08:58:47.007Z,97376.00
2024-02-18T08:59:47.064Z,97374.00
2024-02-18T09:00:47.155Z,97375.00
2024-02-18T09:01:47.314Z,97374.00
2024-02-18T09:02:47.215Z,97374.00
2024-02-18T09:03:47.363Z,97374.00
2024-02-18T09:04:47.552Z,97375.00
2024-02-18T09:05:47.419Z,97376.00
2024-02-18T09:06:47.595Z,97376.00
2024-02-18T09:07:47.518Z,97374.00
2024-02-18T09:08:47.565Z,97371.00
2024-02-18T09:09:47.667Z,97368.00
2024-02-18T09:10:47.719Z,97367.00
2024-02-18T09:11:47.747Z,97367.00
2024-02-18T09:12:47.831Z,97365.00
2024-02-18T09:13:47.877Z,97368.00
2024-02-18T09:14:47.938Z,97368.00
2024-02-18T09:15:48.034Z,97369.00
2024-02-18T09:16:48.103Z,97367.00
2024-02-18T09:17:48.179Z,97367.00
2024-02-18T09:18:48.235Z,97367.00
2024-02-18T09:19:48.434Z,97364.00
2024-02-18T09:20:48.261Z,97365.00
2024-02-18T09:21:48.393Z,97362.00
2024-02-18T09:22:48.352Z,97366.00
2024-02-18T09:23:48.416Z,97365.00
2024-02-18T09:24:48.484Z,97365.00
2024-02-18T09:25:48.500Z,97365.00
2024-02-18T09:26:48.560Z,97361.00
2024-02-18T09:27:48.634Z,97360.00
2024-02-18T09:28:48.707Z,97358.00
2024-02-18T09:29:48.735Z,97357.00
2024-02-18T09:30:48.955Z,97355.00
2024-02-18T09:31:49.205Z,97356.00
2024-02-18T09:32:48.890Z,97356.00
2024-02-18T09:33:49.355Z,97355.00
2024-02-18T09:34:49.094Z,97356.00
2024-02-18T09:35:51.254Z,97352.00
2024-02-18T09:36:49.158Z,97350.00
2024-02-18T09:37:49.201Z,97349.00
2024-02-18T09:38:49.235Z,97346.00
2024-02-18T09:39:49.316Z,97346.00
2024-02-18T09:40:49.391Z,97346.00
2024-02-18T09:41:56.982Z,97347.00
2024-02-18T09:42:57.107Z,97345.00
2024-02-18T09:43:57.063Z,97344.00
2024-02-18T09:44:57.116Z,97340.00
2024-02-18T09:45:57.212Z,97339.00
2024-02-18T09:47:22.027Z,97336.00
2024-02-18T09:48:22.082Z,97333.00
2024-02-18T09:49:22.245Z,97332.00
2024-02-18T09:50:22.014Z,97330.00
2024-02-18T09:51:22.010Z,97331.00
2024-02-18T09:52:22.053Z,97332.00
2024-02-18T09:53:22.014Z,97329.00
2024-02-18T09:54:22.007Z,97329.00
2024-02-18T09:55:23.671Z,97331.00
2024-02-18T09:56:22.015Z,97328.00
2024-02-18T09:57:48.087Z,97327.00
2024-02-18T09:58:22.056Z,97327.00
2024-02-18T09:59:22.036Z,97325.00
2024-02-18T10:00:22.020Z,97321.00
2024-02-18T10:01:22.123Z,97320.00
2024-02-18T10:02:27.039Z,97316.00
2024-02-18T10:03:22.043Z,97312.00
2024-02-18T10:04:22.104Z,97312.00
2024-02-18T10:05:22.319Z,97310.00
2024-02-18T10:06:22.125Z,97313.00
2024-02-18T10:07:22.081Z,97311.00
2024-02-18T10:08:22.058Z,97311.00
2024-02-18T10:09:22.137Z,97312.00
2024-02-18T10:10:22.211Z,97309.00
2024-02-18T10:11:22.342Z,97306.00
2024-02-18T10:12:22.343Z,97306.00
2024-02-18T10:13:22.429Z,97303.00
2024-02-18T10:14:22.500Z,97304.00
2024-02-18T10:15:22.574Z,97302.00
2024-02-18T10:16:22.642Z,97305.00
2024-02-18T10:17:22.721Z,97303.00
2024-02-18T10:18:23.205Z,97302.00
2024-02-18T10:19:22.898Z,97303.00
2024-02-18T10:20:28.052Z,97300.00
2024-02-18T10:21:23.005Z,97299.00
2024-02-18T10:22:22.924Z,97300.00
2024-02-18T10:23:22.933Z,97298.00
2024-02-18T10:24:22.933Z,97295.00
2024-02-18T10:25:27.991Z,97293.00
2024-02-18T10:26:23.020Z,97290.00
2024-02-18T10:27:23.013Z,97286.00
2024-02-18T10:28:22.995Z,97285.00
2024-02-18T10:29:23.002Z,97280.00
2024-02-18T10:30:23.012Z,97281.00
2024-02-18T10:31:23.159Z,97275.00
2024-02-18T10:32:23.139Z,97271.00
2024-02-18T10:33:23.126Z,97268.00
2024-02-18T10:34:23.494Z,97264.00
2024-02-18T10:35:23.580Z,97261.00
2024-02-18T10:36:23.437Z,97257.00
2024-02-18T10:37:23.401Z,97255.00
2024-02-18T10:38:23.421Z,97252.00
2024-02-18T10:39:23.483Z,97250.00
2024-02-18T10:40:28.609Z,97248.00
2024-02-18T10:41:23.555Z,97246.00
2024-02-18T10:42:23.556Z,97244.00
2024-02-18T10:43:23.565Z,97241.00
2024-02-18T10:44:23.545Z,97240.00
2024-02-18T10:45:23.617Z,97238.00
2024-02-18T10:46:23.695Z,97236.00
2024-02-18T10:47:23.693Z,97236.00
2024-02-18T10:48:23.788Z,97231.00
2024-02-18T10:49:23.958Z,97231.00
2024-02-18T10:50:23.885Z,97226.00
2024-02-18T10:51:23.964Z,97224.00
2024-02-18T10:52:24.054Z,97220.00
2024-02-18T10:53:24.098Z,97215.00
2024-02-18T10:54:24.193Z,97218.00
2024-02-18T10:55:24.315Z,97216.00
2024-02-18T10:56:24.316Z,97212.00
2024-02-18T10:57:24.440Z,97210.00
2024-02-18T10:58:24.487Z,97207.00
2024-02-18T10:59:24.536Z,97205.00
2024-02-18T11:00:24.681Z,97202.00
2024-02-18T11:01:24.733Z,97198.00
2024-02-18T11:02:24.757Z,97195.00
2024-02-18T11:03:24.852Z,97193.00
2024-02-18T11:04:24.919Z,97192.00
2024-02-18T11:05:25.061Z,97189.00
2024-02-18T11:06:25.145Z,97191.00
2024-02-18T11:07:25.177Z,97188.00
2024-02-18T11:08:25.193Z,97188.00
2024-02-18T11:09:25.196Z,97185.00
2024-02-18T11:10:25.327Z,97184.00
2024-02-18T11:11:25.344Z,97184.00
2024-02-18T11:12:25.366Z,97179.00
2024-02-18T11:13:25.422Z,97180.00
2024-02-18T11:14:25.483Z,97175.00
2024-02-18T11:15:34.433Z,97176.00
2024-02-18T11:16:25.638Z,97174.00
2024-02-18T11:17:25.557Z,97172.00
2024-02-18T11:18:25.781Z,97172.00
2024-02-18T11:19:25.662Z,97171.00
2024-02-18T11:20:25.676Z,97170.00
2024-02-18T11:21:25.659Z,97167.00
2024-02-18T11:22:25.555Z,97166.00
2024-02-18T11:23:25.575Z,97162.00
2024-02-18T11:24:25.743Z,97159.00
2024-02-18T11:25:25.598Z,97159.00
2024-02-18T11:26:25.575Z,97156.00
2024-02-18T11:27:25.605Z,97155.00
2024-02-18T11:28:25.585Z,97152.00
2024-02-18T11:29:25.586Z,97148.00
2024-02-18T11:30:25.641Z,97147.00
2024-02-18T11:31:25.586Z,97145.00
2024-02-18T11:32:25.623Z,97143.00
2024-02-18T11:33:25.729Z,97141.00
2024-02-18T11:34:25.676Z,97139.00
2024-02-18T11:35:30.627Z,97136.00
2024-02-18T11:36:25.896Z,97134.00
2024-02-18T11:37:25.598Z,97129.00
2024-02-18T11:38:25.587Z,97128.00
2024-02-18T11:39:25.634Z,97125.00
2024-02-18T11:40:30.725Z,97122.00
2024-02-18T11:41:25.610Z,97119.00
2024-02-18T11:42:25.642Z,97116.00
2024-02-18T11:43:25.623Z,97111.00
2024-02-18T11:44:25.606Z,97106.00
2024-02-18T11:45:25.799Z,97104.00